Time;durP1;ratioP1;P1;durP2;ratioP2;P2;SDS_P1;SDS_P2;PMS_P1;PMS_P2;Temp;Humidity;BMP_temperature;BMP_pressure;BME280_temperature;BME280_humidity;BME280_pressure;Samples;Min_cycle;Max_cycle;Signal;HPM_P1;HPM_P2
2023/04/14 00:01:21;;;;;;;2.35;1.83;;;;;;;;;;4946978;29;20062;-76
2023/04/14 00:03:46;;;;;;;2.53;1.83;;;;;;;;;;4949606;29;20028;-80
2023/04/14 00:06:12;;;;;;;2.90;1.63;;;;;;;;;;4948044;29;20048;-77
2023/04/14 00:08:38;;;;;;;2.15;1.95;;;;;;;;;;4931244;29;20027;-76
2023/04/14 00:11:04;;;;;;;2.83;1.92;;;;;;;;;;4946719;29;20039;-76
2023/04/14 00:13:29;;;;;;;4.18;1.70;;;;;;;;;;4944762;29;20024;-77
2023/04/14 00:15:55;;;;;;;3.67;1.33;;;;;;;;;;4946940;29;20307;-76
2023/04/14 00:18:20;;;;;;;5.60;2.10;;;;;;;;;;4929986;29;20039;-76
2023/04/14 00:20:46;;;;;;;1.80;1.52;;;;;;;;;;4944711;29;20027;-79
2023/04/14 00:23:11;;;;;;;2.45;1.65;;;;;;;;;;4927214;29;20046;-79
2023/04/14 00:25:36;;;;;;;4.18;1.88;;;;;;;;;;4944941;29;20029;-78
2023/04/14 00:28:02;;;;;;;3.53;1.40;;;;;;;;;;4944872;29;20023;-80
2023/04/14 00:30:27;;;;;;;3.28;1.73;;;;;;;;;;4928119;29;20494;-78
2023/04/14 00:32:53;;;;;;;2.20;2.00;;;;;;;;;;4944013;29;20049;-78
2023/04/14 00:35:18;;;;;;;3.33;1.73;;;;;;;;;;4927972;29;20043;-77
2023/04/14 00:37:43;;;;;;;3.15;2.00;;;;;;;;;;4927886;29;20039;-78
2023/04/14 00:40:09;;;;;;;3.47;2.05;;;;;;;;;;4935900;29;20022;-78
2023/04/14 00:42:45;;;;;;;2.13;1.73;;;;;;;;;;4926191;29;20136;-78
2023/04/14 00:45:10;;;;;;;3.78;1.80;;;;;;;;;;4922695;29;20493;-78
2023/04/14 00:47:37;;;;;;;2.65;2.40;;;;;;;;;;4927358;29;20035;-78
2023/04/14 00:50:03;;;;;;;2.05;1.95;;;;;;;;;;4943639;29;20022;-77
2023/04/14 00:52:30;;;;;;;3.40;2.58;;;;;;;;;;4927878;29;20016;-78
2023/04/14 00:54:56;;;;;;;3.15;2.35;;;;;;;;;;4943182;29;20034;-77
2023/04/14 00:57:21;;;;;;;4.35;2.20;;;;;;;;;;4945398;29;20031;-78
2023/04/14 00:59:47;;;;;;;3.35;2.35;;;;;;;;;;4925254;29;20032;-79
2023/04/14 01:02:12;;;;;;;2.83;2.45;;;;;;;;;;4944822;29;20109;-78
2023/04/14 01:04:37;;;;;;;3.53;2.10;;;;;;;;;;4942896;29;20027;-78
2023/04/14 01:07:03;;;;;;;2.72;2.40;;;;;;;;;;4926632;29;20026;-77
2023/04/14 01:09:28;;;;;;;2.58;2.30;;;;;;;;;;4927040;29;20042;-78
2023/04/14 01:12:01;;;;;;;2.92;2.65;;;;;;;;;;4944141;29;20378;-78
2023/04/14 01:14:35;;;;;;;2.38;2.10;;;;;;;;;;4920655;29;20039;-78
2023/04/14 01:17:06;;;;;;;2.38;2.17;;;;;;;;;;4914455;29;20591;-78
2023/04/14 01:19:46;;;;;;;5.78;2.42;;;;;;;;;;4927987;29;20046;-78
2023/04/14 01:22:12;;;;;;;4.00;2.30;;;;;;;;;;4942735;29;20023;-78
2023/04/14 01:24:46;;;;;;;4.13;2.88;;;;;;;;;;4945147;29;20569;-78
2023/04/14 01:27:23;;;;;;;3.10;2.20;;;;;;;;;;4944045;29;20034;-77
2023/04/14 01:30:03;;;;;;;3.60;2.60;;;;;;;;;;4943113;29;20015;-77
2023/04/14 01:32:30;;;;;;;2.45;1.90;;;;;;;;;;4943791;29;20023;-78
2023/04/14 01:35:04;;;;;;;2.45;2.10;;;;;;;;;;4926811;29;20055;-79
2023/04/14 01:37:33;;;;;;;2.10;1.92;;;;;;;;;;4927592;29;20406;-79
2023/04/14 01:40:04;;;;;;;5.87;2.40;;;;;;;;;;4939835;29;20034;-79
2023/04/14 01:42:31;;;;;;;4.40;1.83;;;;;;;;;;4927177;29;20019;-79
2023/04/14 01:45:00;;;;;;;2.83;1.88;;;;;;;;;;4944824;29;20031;-78
2023/04/14 01:47:25;;;;;;;5.43;2.08;;;;;;;;;;4926146;29;20134;-79
2023/04/14 01:49:52;;;;;;;3.53;2.15;;;;;;;;;;4925465;29;20106;-78
2023/04/14 01:52:18;;;;;;;2.28;1.98;;;;;;;;;;4942753;29;20027;-79
2023/04/14 01:54:45;;;;;;;2.40;2.20;;;;;;;;;;4927738;29;20023;-78
2023/04/14 01:57:11;;;;;;;1.90;1.80;;;;;;;;;;4926296;29;20035;-78
2023/04/14 01:59:37;;;;;;;8.48;2.67;;;;;;;;;;4923190;29;20512;-79
2023/04/14 02:02:04;;;;;;;3.42;2.20;;;;;;;;;;4950825;28;20035;-80
2023/04/14 02:04:29;;;;;;;2.85;2.40;;;;;;;;;;4952715;29;20023;-79
2023/04/14 02:06:57;;;;;;;2.58;2.38;;;;;;;;;;4948724;29;20052;-79
2023/04/14 02:09:23;;;;;;;3.38;2.10;;;;;;;;;;4931860;29;20537;-79
2023/04/14 02:11:49;;;;;;;2.60;2.28;;;;;;;;;;4939807;29;20030;-79
2023/04/14 02:14:16;;;;;;;5.82;2.80;;;;;;;;;;4943565;29;20075;-79
2023/04/14 02:16:42;;;;;;;2.25;2.05;;;;;;;;;;4929266;29;20027;-79
2023/04/14 02:19:07;;;;;;;5.13;2.30;;;;;;;;;;4948990;29;20027;-79
2023/04/14 02:21:34;;;;;;;2.10;1.90;;;;;;;;;;4935266;29;20023;-79
2023/04/14 02:23:59;;;;;;;3.85;2.30;;;;;;;;;;4930271;29;20031;-80
2023/04/14 02:26:26;;;;;;;3.03;2.25;;;;;;;;;;4937123;29;20537;-80
2023/04/14 02:28:57;;;;;;;3.33;2.65;;;;;;;;;;4960794;29;20028;-80
2023/04/14 02:31:24;;;;;;;3.08;2.08;;;;;;;;;;4940977;29;20023;-81
2023/04/14 02:33:54;;;;;;;2.20;2.00;;;;;;;;;;4952836;29;20629;-79
2023/04/14 02:36:33;;;;;;;3.17;2.88;;;;;;;;;;4938731;29;20143;-80
2023/04/14 02:39:01;;;;;;;2.20;2.00;;;;;;;;;;4955351;29;20541;-79
2023/04/14 02:41:27;;;;;;;3.83;2.10;;;;;;;;;;4937059;29;20027;-79
2023/04/14 02:43:54;;;;;;;3.42;2.00;;;;;;;;;;4945734;29;20027;-79
2023/04/14 02:46:20;;;;;;;2.88;2.03;;;;;;;;;;4925062;29;20706;-79
2023/04/14 02:48:47;;;;;;;2.30;2.10;;;;;;;;;;4943430;29;20046;-79
2023/04/14 02:51:13;;;;;;;4.88;2.25;;;;;;;;;;4946241;29;20022;-79
2023/04/14 02:53:39;;;;;;;2.20;2.00;;;;;;;;;;4927646;29;20035;-78
2023/04/14 02:56:05;;;;;;;2.83;2.30;;;;;;;;;;4924869;29;20028;-77
2023/04/14 02:58:30;;;;;;;3.00;2.17;;;;;;;;;;4939766;29;20098;-77
2023/04/14 03:00:57;;;;;;;4.00;2.50;;;;;;;;;;4929271;29;20824;-79
2023/04/14 03:03:22;;;;;;;3.03;2.72;;;;;;;;;;4944937;29;20062;-79
2023/04/14 03:05:48;;;;;;;2.47;1.75;;;;;;;;;;4924064;29;20051;-80
2023/04/14 03:08:14;;;;;;;2.95;2.25;;;;;;;;;;4933977;29;20031;-80
2023/04/14 03:10:40;;;;;;;2.90;2.60;;;;;;;;;;4932725;29;20414;-79
2023/04/14 03:13:05;;;;;;;4.30;2.00;;;;;;;;;;4935606;29;20078;-80
2023/04/14 03:15:32;;;;;;;2.35;2.15;;;;;;;;;;4947753;29;20591;-78
2023/04/14 03:17:58;;;;;;;2.53;2.33;;;;;;;;;;4967633;28;20051;-81
2023/04/14 03:20:25;;;;;;;4.13;2.13;;;;;;;;;;4965406;29;20019;-82
2023/04/14 03:22:56;;;;;;;5.40;3.33;;;;;;;;;;4948312;29;20054;-80
2023/04/14 03:25:26;;;;;;;2.70;2.22;;;;;;;;;;4970761;29;20016;-80
2023/04/14 03:27:53;;;;;;;2.17;1.98;;;;;;;;;;4970541;29;20051;-82
2023/04/14 03:30:19;;;;;;;2.45;2.25;;;;;;;;;;4952313;29;20047;-81
2023/04/14 03:32:46;;;;;;;2.80;2.60;;;;;;;;;;4971555;29;20031;-81
2023/04/14 03:35:14;;;;;;;2.20;1.90;;;;;;;;;;4960302;29;20051;-81
2023/04/14 03:37:40;;;;;;;3.05;2.10;;;;;;;;;;4949942;29;20031;-82
2023/04/14 03:40:07;;;;;;;2.42;2.22;;;;;;;;;;4946837;29;20031;-81
2023/04/14 03:42:33;;;;;;;2.47;2.28;;;;;;;;;;4939944;29;20031;-82
2023/04/14 03:44:59;;;;;;;2.05;1.85;;;;;;;;;;4949692;29;20034;-82
2023/04/14 03:47:27;;;;;;;6.15;2.25;;;;;;;;;;4956714;29;20019;-81
2023/04/14 03:49:55;;;;;;;2.25;2.00;;;;;;;;;;4963820;29;20075;-81
2023/04/14 03:52:22;;;;;;;2.30;1.98;;;;;;;;;;4966739;29;20030;-80
2023/04/14 03:54:48;;;;;;;2.25;1.75;;;;;;;;;;4961856;29;20042;-79
2023/04/14 03:57:16;;;;;;;2.63;2.10;;;;;;;;;;4960297;29;20034;-78
2023/04/14 03:59:43;;;;;;;2.92;1.65;;;;;;;;;;4955181;29;20015;-79
2023/04/14 04:02:09;;;;;;;1.95;1.85;;;;;;;;;;4936632;29;20042;-80
2023/04/14 04:04:35;;;;;;;5.00;2.47;;;;;;;;;;4954473;29;20426;-80
2023/04/14 04:07:01;;;;;;;2.35;1.90;;;;;;;;;;4932705;29;20031;-79
2023/04/14 04:09:28;;;;;;;3.85;2.00;;;;;;;;;;4930178;29;20083;-79
2023/04/14 04:11:57;;;;;;;2.28;2.08;;;;;;;;;;4932360;29;20038;-80
2023/04/14 04:14:24;;;;;;;2.73;1.93;;;;;;;;;;4950158;29;20188;-79
2023/04/14 04:16:50;;;;;;;3.28;2.20;;;;;;;;;;4945568;28;20641;-80
2023/04/14 04:19:17;;;;;;;3.65;1.98;;;;;;;;;;4921595;29;20075;-78
2023/04/14 04:21:44;;;;;;;4.20;2.33;;;;;;;;;;4949906;29;20401;-79
2023/04/14 04:24:11;;;;;;;3.70;2.35;;;;;;;;;;4949436;29;20106;-79
2023/04/14 04:26:36;;;;;;;2.08;1.88;;;;;;;;;;4948834;29;20019;-79
2023/04/14 04:29:03;;;;;;;3.45;2.65;;;;;;;;;;4950411;29;20042;-79
2023/04/14 04:31:29;;;;;;;2.63;1.98;;;;;;;;;;4932197;29;20174;-80
2023/04/14 04:33:58;;;;;;;4.47;2.20;;;;;;;;;;4933722;29;20110;-80
2023/04/14 04:36:27;;;;;;;7.05;5.05;;;;;;;;;;4931680;29;20051;-81
2023/04/14 04:38:52;;;;;;;7.32;2.75;;;;;;;;;;4944629;29;20052;-80
2023/04/14 04:41:21;;;;;;;2.60;2.40;;;;;;;;;;4932378;29;20015;-80
2023/04/14 04:43:46;;;;;;;2.58;1.95;;;;;;;;;;4964730;29;20034;-81
2023/04/14 04:46:30;;;;;;;3.05;1.90;;;;;;;;;;4942075;29;20023;-79
2023/04/14 04:48:56;;;;;;;3.42;2.17;;;;;;;;;;4945144;29;20033;-80
2023/04/14 04:51:21;;;;;;;2.63;2.10;;;;;;;;;;4931860;29;20456;-80
2023/04/14 04:53:46;;;;;;;3.20;2.00;;;;;;;;;;4928506;29;20011;-80
2023/04/14 04:56:11;;;;;;;2.85;2.50;;;;;;;;;;4962413;29;20657;-79
2023/04/14 04:58:37;;;;;;;3.43;2.17;;;;;;;;;;4941084;29;20421;-81
2023/04/14 05:01:09;;;;;;;2.67;2.28;;;;;;;;;;4958092;28;20326;-80
2023/04/14 05:03:34;;;;;;;2.13;1.95;;;;;;;;;;4949536;29;20023;-81
2023/04/14 05:06:00;;;;;;;3.60;2.40;;;;;;;;;;4932531;29;20053;-78
2023/04/14 05:08:25;;;;;;;2.85;2.25;;;;;;;;;;4932901;28;20114;-78
2023/04/14 05:10:50;;;;;;;2.35;2.15;;;;;;;;;;4946242;29;20034;-79
2023/04/14 05:13:15;;;;;;;3.13;2.42;;;;;;;;;;4954864;29;20041;-79
2023/04/14 05:15:41;;;;;;;4.43;2.20;;;;;;;;;;4945332;29;20023;-80
2023/04/14 05:18:06;;;;;;;3.00;2.53;;;;;;;;;;4964217;29;20417;-81
2023/04/14 05:20:31;;;;;;;3.05;2.40;;;;;;;;;;4965453;29;20011;-81
2023/04/14 05:22:57;;;;;;;4.72;2.42;;;;;;;;;;4967388;29;20026;-80
2023/04/14 05:25:22;;;;;;;2.90;2.35;;;;;;;;;;4972876;28;20051;-80
2023/04/14 05:27:47;;;;;;;2.30;2.10;;;;;;;;;;4983577;28;20031;-81
2023/04/14 05:30:13;;;;;;;2.95;2.15;;;;;;;;;;4952308;29;20070;-81
2023/04/14 05:32:38;;;;;;;2.70;2.17;;;;;;;;;;4952460;29;20473;-81
2023/04/14 05:35:05;;;;;;;2.40;2.20;;;;;;;;;;4977084;28;20051;-81
2023/04/14 05:37:31;;;;;;;62.47;33.90;;;;;;;;;;4977806;29;20020;-81
2023/04/14 05:39:56;;;;;;;9.70;6.45;;;;;;;;;;4962546;28;20009;-82
2023/04/14 05:50:06;;;;;;;3.78;3.45;;;;;;;;;;4972103;23;19929;-81
2023/04/14 06:00:17;;;;;;;6.95;5.93;;;;;;;;;;5943815;23;20011;-88
2023/04/14 06:02:43;;;;;;;4.03;3.63;;;;;;;;;;4912517;29;20044;-91
2023/04/14 06:12:54;;;;;;;3.60;2.40;;;;;;;;;;4934161;27;19914;-82
2023/04/14 06:15:19;;;;;;;7.93;2.78;;;;;;;;;;4921554;29;20024;-85
2023/04/14 06:17:46;;;;;;;4.22;2.70;;;;;;;;;;4931469;29;20028;-83
2023/04/14 06:20:11;;;;;;;2.15;1.95;;;;;;;;;;4938587;29;20031;-84
2023/04/14 06:28:03;;;;;;;5.63;2.25;;;;;;;;;;5024702;23;20111;-82
2023/04/14 06:35:39;;;;;;;3.22;2.15;;;;;;;;;;5711129;23;1374031;-79
2023/04/14 06:38:04;;;;;;;4.82;2.45;;;;;;;;;;4956941;28;20023;-81
2023/04/14 06:40:29;;;;;;;3.78;2.22;;;;;;;;;;4964657;28;20054;-80
2023/04/14 06:42:55;;;;;;;6.10;2.33;;;;;;;;;;4977847;28;20034;-79
2023/04/14 06:47:55;;;;;;;4.25;2.30;;;;;;;;;;5373896;23;20052;-82
2023/04/14 06:55:31;;;;;;;4.80;2.38;;;;;;;;;;5398060;23;19926;-83
2023/04/14 06:57:56;;;;;;;4.90;2.40;;;;;;;;;;4930360;29;20623;-83
2023/04/14 07:00:21;;;;;;;3.05;2.45;;;;;;;;;;5435465;23;20078;-78
2023/04/14 07:08:05;;;;;;;5.22;2.42;;;;;;;;;;4958352;29;20060;-79
2023/04/14 07:10:30;;;;;;;5.57;1.80;;;;;;;;;;4971405;29;20031;-79
2023/04/14 07:12:55;;;;;;;3.63;2.03;;;;;;;;;;4962992;29;20051;-75
2023/04/14 07:15:21;;;;;;;4.37;2.00;;;;;;;;;;4964432;29;20022;-76
2023/04/14 07:17:46;;;;;;;6.95;2.40;;;;;;;;;;4946715;29;20324;-82
2023/04/14 07:20:12;;;;;;;9.85;2.60;;;;;;;;;;4939145;29;20039;-75
2023/04/14 07:22:38;;;;;;;4.95;2.28;;;;;;;;;;4928876;29;20059;-76
2023/04/14 07:25:03;;;;;;;4.25;1.95;;;;;;;;;;4946787;29;20501;-75
2023/04/14 07:27:30;;;;;;;5.72;2.30;;;;;;;;;;4948288;29;20109;-75
2023/04/14 07:29:55;;;;;;;6.05;2.13;;;;;;;;;;4957220;29;20027;-80
2023/04/14 07:32:21;;;;;;;3.67;2.03;;;;;;;;;;4966782;29;20075;-79
2023/04/14 07:34:46;;;;;;;4.30;2.30;;;;;;;;;;4971782;29;19999;-80
2023/04/14 07:37:12;;;;;;;2.72;2.00;;;;;;;;;;4972772;28;20027;-79
2023/04/14 07:39:37;;;;;;;5.03;2.15;;;;;;;;;;4955965;28;20031;-82
2023/04/14 07:42:03;;;;;;;10.73;2.97;;;;;;;;;;4970574;28;20042;-80
2023/04/14 07:44:28;;;;;;;4.72;2.35;;;;;;;;;;5487271;23;20074;-80
2023/04/14 07:46:53;;;;;;;3.03;1.85;;;;;;;;;;5204603;23;20062;-76
2023/04/14 07:54:23;;;;;;;3.13;1.90;;;;;;;;;;5063963;23;20040;-78
2023/04/14 07:56:48;;;;;;;3.45;1.75;;;;;;;;;;4923267;29;20080;-78
2023/04/14 07:59:14;;;;;;;4.68;2.45;;;;;;;;;;4919856;29;20429;-76
2023/04/14 08:01:41;;;;;;;4.70;2.42;;;;;;;;;;4898172;29;20459;-77
2023/04/14 08:04:06;;;;;;;3.55;2.08;;;;;;;;;;4902509;29;20586;-76
2023/04/14 08:06:33;;;;;;;3.97;2.10;;;;;;;;;;4905398;29;20039;-76
2023/04/14 08:08:58;;;;;;;5.13;2.35;;;;;;;;;;4925523;29;20024;-78
2023/04/14 08:11:24;;;;;;;10.03;2.43;;;;;;;;;;4921676;29;20512;-76
2023/04/14 08:13:51;;;;;;;3.97;2.70;;;;;;;;;;4924696;29;20418;-77
2023/04/14 08:16:17;;;;;;;5.47;2.35;;;;;;;;;;4924095;29;20054;-77
2023/04/14 08:18:42;;;;;;;4.97;2.20;;;;;;;;;;4911011;29;20555;-78
2023/04/14 08:21:08;;;;;;;5.13;2.17;;;;;;;;;;4915461;29;20023;-77
2023/04/14 08:23:33;;;;;;;2.83;2.28;;;;;;;;;;4920957;29;20016;-78
2023/04/14 08:25:59;;;;;;;4.88;2.50;;;;;;;;;;4924183;29;20079;-78
2023/04/14 08:28:25;;;;;;;5.70;2.38;;;;;;;;;;4920846;29;20383;-76
2023/04/14 08:30:51;;;;;;;5.95;2.63;;;;;;;;;;4905912;29;20030;-77
2023/04/14 08:33:16;;;;;;;3.65;2.20;;;;;;;;;;4921222;29;20053;-76
2023/04/14 08:35:42;;;;;;;6.73;2.77;;;;;;;;;;4916281;29;20790;-76
2023/04/14 08:38:07;;;;;;;2.88;1.88;;;;;;;;;;4923665;29;20362;-76
2023/04/14 08:40:37;;;;;;;7.97;2.42;;;;;;;;;;4913904;29;20032;-75
2023/04/14 08:43:02;;;;;;;4.53;2.30;;;;;;;;;;4926640;29;20019;-75
2023/04/14 08:45:29;;;;;;;6.80;2.63;;;;;;;;;;4922026;29;20391;-77
2023/04/14 08:47:55;;;;;;;6.65;2.78;;;;;;;;;;4929446;29;20020;-79
2023/04/14 08:50:24;;;;;;;4.30;2.38;;;;;;;;;;4906858;29;20028;-75
2023/04/14 08:52:52;;;;;;;8.30;2.60;;;;;;;;;;4924746;29;20058;-75
2023/04/14 08:55:17;;;;;;;8.20;2.75;;;;;;;;;;4909236;29;20030;-77
2023/04/14 08:57:43;;;;;;;7.13;2.65;;;;;;;;;;4923507;29;20040;-77
2023/04/14 09:00:09;;;;;;;8.80;2.60;;;;;;;;;;4923025;29;20055;-81
2023/04/14 09:02:35;;;;;;;5.00;3.20;;;;;;;;;;4895143;29;20127;-76
2023/04/14 09:05:00;;;;;;;7.68;2.90;;;;;;;;;;4918791;29;20650;-78
2023/04/14 09:07:26;;;;;;;7.57;2.97;;;;;;;;;;4922300;29;20115;-76
2023/04/14 09:09:52;;;;;;;5.97;2.42;;;;;;;;;;4922966;29;20028;-77
2023/04/14 09:12:19;;;;;;;7.45;2.50;;;;;;;;;;4921352;29;20015;-82
2023/04/14 09:14:45;;;;;;;8.25;2.17;;;;;;;;;;4913293;29;20097;-78
2023/04/14 09:17:11;;;;;;;7.38;2.75;;;;;;;;;;4931078;29;20038;-77
2023/04/14 09:19:36;;;;;;;8.45;3.05;;;;;;;;;;4920729;29;20390;-76
2023/04/14 09:22:02;;;;;;;7.63;2.22;;;;;;;;;;4914060;29;20459;-77
2023/04/14 09:24:28;;;;;;;10.40;3.53;;;;;;;;;;4902943;29;20118;-77
2023/04/14 09:26:54;;;;;;;8.07;2.95;;;;;;;;;;4906142;29;20091;-80
2023/04/14 09:29:19;;;;;;;9.45;3.13;;;;;;;;;;4918435;29;20464;-78
2023/04/14 09:31:45;;;;;;;14.07;3.28;;;;;;;;;;4923268;29;20024;-79
2023/04/14 09:34:15;;;;;;;6.35;2.78;;;;;;;;;;4919260;29;20501;-79
2023/04/14 09:36:40;;;;;;;9.02;2.80;;;;;;;;;;4923588;29;20658;-78
2023/04/14 09:39:15;;;;;;;6.25;2.80;;;;;;;;;;4915986;29;20095;-79
2023/04/14 09:41:46;;;;;;;10.63;3.13;;;;;;;;;;4921203;29;20499;-80
2023/04/14 09:44:11;;;;;;;11.50;2.80;;;;;;;;;;4923776;29;20564;-82
2023/04/14 09:46:36;;;;;;;9.57;3.20;;;;;;;;;;4922010;29;20143;-84
2023/04/14 09:49:03;;;;;;;4.57;2.38;;;;;;;;;;4920230;29;20341;-82
2023/04/14 09:51:31;;;;;;;10.05;2.70;;;;;;;;;;4922325;29;20023;-78
2023/04/14 09:54:01;;;;;;;6.70;2.92;;;;;;;;;;4903543;29;20050;-79
2023/04/14 09:56:27;;;;;;;9.32;3.25;;;;;;;;;;4916058;29;20040;-87
2023/04/14 09:58:55;;;;;;;14.70;3.05;;;;;;;;;;4908089;29;20043;-81
2023/04/14 10:01:21;;;;;;;14.15;3.00;;;;;;;;;;4900480;29;20030;-79
2023/04/14 10:03:48;;;;;;;10.98;3.00;;;;;;;;;;4924299;29;20051;-80
2023/04/14 10:06:13;;;;;;;15.63;3.08;;;;;;;;;;4920700;29;20024;-77
2023/04/14 10:08:40;;;;;;;10.33;2.90;;;;;;;;;;4923301;29;20050;-81
2023/04/14 10:11:15;;;;;;;11.40;2.95;;;;;;;;;;4903836;29;20276;-80
2023/04/14 10:13:41;;;;;;;10.63;2.90;;;;;;;;;;4907882;29;20027;-87
2023/04/14 10:16:07;;;;;;;9.52;3.35;;;;;;;;;;4924401;29;20024;-81
2023/04/14 10:18:33;;;;;;;13.25;3.50;;;;;;;;;;4919605;29;20032;-83
2023/04/14 10:20:59;;;;;;;10.50;4.32;;;;;;;;;;4906511;29;20024;-82
2023/04/14 10:23:24;;;;;;;13.93;4.47;;;;;;;;;;4903877;29;20120;-84
2023/04/14 10:25:50;;;;;;;11.52;2.95;;;;;;;;;;4925495;29;20016;-83
2023/04/14 10:28:16;;;;;;;13.93;2.90;;;;;;;;;;4924197;29;20031;-83
2023/04/14 10:30:42;;;;;;;10.50;3.05;;;;;;;;;;4919187;29;20545;-82
2023/04/14 10:33:07;;;;;;;13.77;2.90;;;;;;;;;;4922980;29;20131;-81
2023/04/14 10:35:40;;;;;;;12.38;3.42;;;;;;;;;;4922850;29;20663;-81
2023/04/14 10:38:06;;;;;;;11.75;3.55;;;;;;;;;;4901791;29;20035;-77
2023/04/14 10:40:46;;;;;;;13.05;3.65;;;;;;;;;;4923569;29;20024;-84
2023/04/14 10:43:15;;;;;;;11.30;3.20;;;;;;;;;;4924321;29;20058;-82
2023/04/14 10:45:54;;;;;;;13.13;4.97;;;;;;;;;;4923647;29;20024;-81
2023/04/14 10:48:21;;;;;;;17.83;3.55;;;;;;;;;;4923049;29;20486;-86
2023/04/14 10:50:49;;;;;;;15.57;3.30;;;;;;;;;;4903164;29;20997;-83
2023/04/14 10:53:15;;;;;;;9.13;3.20;;;;;;;;;;4902903;29;20306;-84
2023/04/14 10:55:47;;;;;;;9.48;2.95;;;;;;;;;;4919903;29;20836;-83
2023/04/14 10:58:20;;;;;;;10.43;2.28;;;;;;;;;;4921240;29;20039;-84
2023/04/14 11:00:45;;;;;;;13.85;7.80;;;;;;;;;;4921907;29;20039;-84
2023/04/14 11:03:11;;;;;;;19.10;3.60;;;;;;;;;;4905793;29;20031;-81
2023/04/14 11:06:03;;;;;;;13.27;3.03;;;;;;;;;;4920735;29;21777;-83
2023/04/14 11:08:35;;;;;;;12.07;3.67;;;;;;;;;;4902370;29;20035;-85
2023/04/14 11:11:04;;;;;;;29.63;12.25;;;;;;;;;;4918477;29;20024;-82
2023/04/14 11:13:30;;;;;;;15.00;3.45;;;;;;;;;;4918675;29;20032;-84
2023/04/14 11:16:02;;;;;;;13.20;2.70;;;;;;;;;;4921965;29;20051;-85
2023/04/14 11:18:28;;;;;;;14.40;3.58;;;;;;;;;;4923662;29;20036;-79
2023/04/14 11:20:53;;;;;;;5.97;2.43;;;;;;;;;;4924239;29;20087;-88
2023/04/14 11:23:25;;;;;;;17.23;4.13;;;;;;;;;;4923358;29;20386;-82
2023/04/14 11:25:51;;;;;;;6.53;2.20;;;;;;;;;;4920788;29;20151;-89
2023/04/14 11:28:25;;;;;;;8.25;2.78;;;;;;;;;;4924452;29;20115;-85
2023/04/14 11:30:50;;;;;;;4.78;1.67;;;;;;;;;;4924241;29;20070;-86
2023/04/14 11:33:15;;;;;;;3.80;1.55;;;;;;;;;;4924812;29;20071;-85
2023/04/14 11:35:41;;;;;;;2.80;1.23;;;;;;;;;;4923078;29;20020;-85
2023/04/14 11:38:08;;;;;;;8.65;1.63;;;;;;;;;;4900604;29;20138;-85
2023/04/14 11:40:35;;;;;;;4.22;1.95;;;;;;;;;;4922485;29;20023;-86
2023/04/14 11:43:01;;;;;;;4.00;1.58;;;;;;;;;;4922430;29;20501;-89
2023/04/14 11:45:27;;;;;;;14.88;6.97;;;;;;;;;;4924600;29;20024;-87
2023/04/14 11:47:57;;;;;;;3.55;1.13;;;;;;;;;;4928419;29;20024;-91
2023/04/14 11:50:22;;;;;;;1.67;0.85;;;;;;;;;;4910734;29;20414;-85
2023/04/14 11:52:48;;;;;;;10.95;1.00;;;;;;;;;;4921553;29;20107;-88
2023/04/14 11:55:14;;;;;;;1.33;0.60;;;;;;;;;;4922403;29;20047;-87
2023/04/14 11:57:45;;;;;;;5.35;0.80;;;;;;;;;;4921792;29;20624;-87
2023/04/14 12:00:14;;;;;;;2.15;0.90;;;;;;;;;;4922557;29;20023;-86
2023/04/14 12:02:43;;;;;;;2.37;0.83;;;;;;;;;;4920464;29;20027;-87
2023/04/14 12:05:09;;;;;;;1.58;0.50;;;;;;;;;;4904360;29;20287;-90
2023/04/14 12:07:34;;;;;;;2.72;1.90;;;;;;;;;;4908682;29;20031;-84
2023/04/14 12:10:01;;;;;;;0.55;0.50;;;;;;;;;;4907026;29;20068;-86
2023/04/14 12:12:27;;;;;;;3.92;0.40;;;;;;;;;;4923015;29;20032;-85
2023/04/14 12:14:53;;;;;;;1.58;0.40;;;;;;;;;;4924669;29;20023;-80
2023/04/14 12:17:20;;;;;;;0.98;0.40;;;;;;;;;;4929894;29;20035;-86
2023/04/14 12:19:45;;;;;;;3.53;0.50;;;;;;;;;;4925926;29;20872;-87
2023/04/14 12:22:11;;;;;;;4.88;0.73;;;;;;;;;;4925918;29;20016;-79
2023/04/14 12:24:40;;;;;;;4.03;0.77;;;;;;;;;;4954686;29;20031;-81
2023/04/14 12:27:08;;;;;;;1.77;0.60;;;;;;;;;;5143240;23;20047;-85
2023/04/14 12:29:35;;;;;;;3.95;0.60;;;;;;;;;;4953232;28;20054;-87
2023/04/14 12:32:01;;;;;;;3.60;0.90;;;;;;;;;;4952500;28;20031;-79
2023/04/14 12:37:08;;;;;;;0.35;0.30;;;;;;;;;;5547291;23;20066;-80
2023/04/14 12:42:17;;;;;;;1.63;0.40;;;;;;;;;;5144116;23;20083;-83
2023/04/14 12:44:52;;;;;;;4.03;0.40;;;;;;;;;;4948725;29;20023;-81
2023/04/14 12:47:28;;;;;;;2.10;0.20;;;;;;;;;;4973481;29;20031;-80
2023/04/14 12:49:54;;;;;;;3.15;0.40;;;;;;;;;;4954240;29;20067;-81
2023/04/14 12:52:32;;;;;;;3.55;0.70;;;;;;;;;;4970824;28;20023;-81
2023/04/14 12:54:57;;;;;;;1.50;0.57;;;;;;;;;;4966837;29;20577;-80
2023/04/14 12:57:23;;;;;;;2.17;0.60;;;;;;;;;;4946887;29;20388;-79
2023/04/14 12:59:48;;;;;;;0.40;0.40;;;;;;;;;;4961404;29;20033;-80
2023/04/14 13:02:14;;;;;;;7.25;0.50;;;;;;;;;;4962408;29;20283;-80
2023/04/14 13:04:39;;;;;;;0.95;0.40;;;;;;;;;;4960734;29;20505;-80
2023/04/14 13:07:04;;;;;;;0.80;0.47;;;;;;;;;;4927005;29;20031;-81
2023/04/14 13:09:30;;;;;;;1.20;0.30;;;;;;;;;;4908667;29;20068;-80
2023/04/14 13:11:56;;;;;;;1.15;0.38;;;;;;;;;;4934091;29;20024;-84
2023/04/14 13:14:22;;;;;;;1.90;0.32;;;;;;;;;;4923336;29;20095;-80
2023/04/14 13:16:47;;;;;;;1.45;0.60;;;;;;;;;;4920025;29;20023;-80
2023/04/14 13:19:12;;;;;;;3.15;0.40;;;;;;;;;;4938268;29;20027;-80
2023/04/14 13:21:37;;;;;;;0.68;0.68;;;;;;;;;;4937670;29;20031;-80
2023/04/14 13:24:06;;;;;;;1.00;0.40;;;;;;;;;;4925843;29;20039;-81
2023/04/14 13:26:32;;;;;;;0.57;0.30;;;;;;;;;;4947703;29;20039;-80
2023/04/14 13:28:57;;;;;;;0.63;0.40;;;;;;;;;;4930780;29;20024;-82
2023/04/14 13:31:23;;;;;;;1.17;0.20;;;;;;;;;;4911024;29;20423;-83
2023/04/14 13:33:48;;;;;;;5.85;0.45;;;;;;;;;;4918601;29;20410;-85
2023/04/14 13:36:13;;;;;;;2.53;1.50;;;;;;;;;;4928425;29;20032;-83
2023/04/14 13:38:40;;;;;;;2.72;0.30;;;;;;;;;;4937566;29;20032;-81
2023/04/14 13:41:06;;;;;;;0.40;0.30;;;;;;;;;;4957796;28;20055;-81
2023/04/14 13:43:32;;;;;;;3.72;0.50;;;;;;;;;;4954254;29;20094;-82
2023/04/14 14:34:18;;;;;;;2.53;0.30;;;;;;;;;;5132891;23;20027;-81
2023/04/14 14:39:19;;;;;;;3.22;0.43;;;;;;;;;;5489321;23;20069;-81
2023/04/14 14:41:49;;;;;;;1.65;0.30;;;;;;;;;;5315441;23;20091;-80
2023/04/14 14:44:15;;;;;;;0.55;0.32;;;;;;;;;;4959860;29;20008;-81
2023/04/14 14:46:40;;;;;;;4.10;3.38;;;;;;;;;;4971792;28;20026;-81
2023/04/14 14:49:06;;;;;;;7.85;0.80;;;;;;;;;;4962330;29;20060;-81
2023/04/14 14:51:31;;;;;;;1.63;1.00;;;;;;;;;;4969808;29;20071;-82
2023/04/14 14:53:59;;;;;;;1.42;0.50;;;;;;;;;;4963292;29;20030;-80
2023/04/14 14:56:25;;;;;;;2.30;1.13;;;;;;;;;;4948184;29;20035;-81
2023/04/14 14:58:51;;;;;;;3.58;1.45;;;;;;;;;;4952059;29;20038;-80
2023/04/14 15:01:17;;;;;;;1.33;0.40;;;;;;;;;;4960011;28;20019;-82
2023/04/14 15:03:43;;;;;;;2.80;1.38;;;;;;;;;;4963233;29;20111;-79
2023/04/14 15:06:08;;;;;;;4.40;1.67;;;;;;;;;;4935292;29;20020;-81
2023/04/14 15:08:34;;;;;;;1.58;0.60;;;;;;;;;;4935459;29;20039;-80
2023/04/14 15:11:00;;;;;;;2.75;0.75;;;;;;;;;;4945614;29;20043;-80
2023/04/14 15:13:26;;;;;;;4.47;0.93;;;;;;;;;;4925124;29;20036;-80
2023/04/14 15:15:51;;;;;;;1.92;0.50;;;;;;;;;;4927808;29;20008;-80
2023/04/14 15:18:17;;;;;;;3.10;0.80;;;;;;;;;;4936043;29;20043;-81
2023/04/14 15:20:42;;;;;;;1.15;0.40;;;;;;;;;;4927728;29;20027;-80
2023/04/14 15:23:08;;;;;;;1.48;0.80;;;;;;;;;;4927514;29;20028;-80
2023/04/14 15:25:33;;;;;;;1.75;0.93;;;;;;;;;;4944505;29;20000;-81
2023/04/14 15:27:58;;;;;;;1.40;0.52;;;;;;;;;;4952398;29;20102;-81
2023/04/14 15:30:24;;;;;;;4.00;2.83;;;;;;;;;;4941323;29;20243;-80
2023/04/14 15:32:50;;;;;;;1.65;0.82;;;;;;;;;;4938099;29;20039;-80
2023/04/14 15:35:15;;;;;;;5.68;0.60;;;;;;;;;;4942250;29;20026;-81
2023/04/14 15:40:23;;;;;;;1.15;0.75;;;;;;;;;;5333371;23;20485;-77
2023/04/14 15:42:49;;;;;;;1.02;0.30;;;;;;;;;;4878187;29;20072;-78
2023/04/14 15:45:14;;;;;;;2.75;0.40;;;;;;;;;;4871181;29;20064;-77
2023/04/14 15:47:39;;;;;;;0.88;0.40;;;;;;;;;;4888310;29;20131;-78
2023/04/14 15:50:05;;;;;;;2.70;0.80;;;;;;;;;;4874009;29;20028;-77
2023/04/14 15:52:30;;;;;;;1.92;0.70;;;;;;;;;;4888232;29;20446;-77
2023/04/14 15:54:56;;;;;;;3.20;0.32;;;;;;;;;;4886838;29;20047;-78
2023/04/14 15:57:23;;;;;;;1.42;0.30;;;;;;;;;;4889869;29;20046;-78
2023/04/14 15:59:48;;;;;;;2.05;0.60;;;;;;;;;;4879953;29;20134;-78
2023/04/14 16:02:13;;;;;;;1.25;0.50;;;;;;;;;;4878057;29;20529;-79
2023/04/14 16:04:39;;;;;;;1.27;0.30;;;;;;;;;;4880461;29;20089;-78
2023/04/14 16:07:04;;;;;;;2.85;0.50;;;;;;;;;;4885359;29;20287;-78
2023/04/14 16:09:30;;;;;;;1.33;0.50;;;;;;;;;;4887141;29;20585;-77
2023/04/14 16:11:55;;;;;;;3.70;0.40;;;;;;;;;;4881940;29;20040;-75
2023/04/14 16:14:21;;;;;;;1.63;0.40;;;;;;;;;;4880980;29;20021;-75
2023/04/14 16:16:46;;;;;;;1.33;0.50;;;;;;;;;;4886014;29;20052;-76
2023/04/14 16:19:13;;;;;;;3.03;0.90;;;;;;;;;;4886735;29;20762;-75
2023/04/14 16:21:39;;;;;;;1.05;0.40;;;;;;;;;;4885166;29;20558;-76
2023/04/14 16:24:04;;;;;;;0.88;0.30;;;;;;;;;;4886305;29;20116;-76
2023/04/14 16:26:30;;;;;;;0.80;0.40;;;;;;;;;;4885223;29;20885;-77
2023/04/14 16:28:55;;;;;;;0.65;0.30;;;;;;;;;;4886162;29;20028;-76